Time;durP1;ratioP1;P1;durP2;ratioP2;P2;SDS_P1;SDS_P2;PMS_P1;PMS_P2;Temp;Humidity;BMP_temperature;BMP_pressure;BME280_temperature;BME280_humidity;BME280_pressure;Samples;Min_cycle;Max_cycle;Signal;HPM_P1;HPM_P2
2022/09/04 00:00:47;;;;;;;6.40;3.17;;;;;;;19.61;100.00;96371.66;5134902;27;20067;-48
2022/09/04 00:03:26;;;;;;;61.33;4.82;;;;;;;19.63;100.00;96383.03;5137941;27;20073;-50
2022/09/04 00:05:56;;;;;;;20.30;2.70;;;;;;;19.60;100.00;96383.41;5136811;27;20077;-48
2022/09/04 00:08:35;;;;;;;4.47;2.55;;;;;;;19.50;100.00;96386.47;5139529;27;20074;-48
2022/09/04 00:11:10;;;;;;;5.60;2.78;;;;;;;19.18;100.00;96388.84;5136903;27;20071;-47
2022/09/04 00:13:43;;;;;;;4.28;2.38;;;;;;;18.95;100.00;96388.34;5135532;27;20086;-49
2022/09/04 00:16:19;;;;;;;3.20;2.60;;;;;;;18.64;100.00;96388.78;5133852;27;20070;-49
2022/09/04 00:18:54;;;;;;;6.40;3.22;;;;;;;18.72;100.00;96389.47;5133825;27;20080;-50
2022/09/04 00:21:30;;;;;;;8.38;3.33;;;;;;;19.17;100.00;96381.03;5137756;27;20074;-46
2022/09/04 00:24:00;;;;;;;6.82;3.20;;;;;;;19.11;100.00;96393.34;5132258;27;20101;-52
2022/09/04 00:26:40;;;;;;;6.50;3.30;;;;;;;19.11;100.00;96392.53;5138377;27;20457;-55
2022/09/04 00:29:14;;;;;;;6.05;3.50;;;;;;;19.06;100.00;96392.28;5136557;27;20070;-46
2022/09/04 00:31:47;;;;;;;8.35;3.45;;;;;;;18.78;100.00;96392.38;5135165;27;20144;-52
2022/09/04 00:34:26;;;;;;;9.32;3.30;;;;;;;18.82;100.00;96389.09;5137635;27;20089;-50
2022/09/04 00:36:57;;;;;;;6.88;3.25;;;;;;;19.11;100.00;96392.53;5137989;27;20089;-52
2022/09/04 00:39:27;;;;;;;;;;;;;;;19.24;100.00;96391.75;5135615;27;20078;-50
2022/09/04 00:42:05;;;;;;;5.90;3.03;;;;;;;19.35;100.00;96388.50;5134087;27;20348;-53
2022/09/04 00:44:49;;;;;;;13.75;3.50;;;;;;;19.30;100.00;96391.75;5135477;27;20503;-54
2022/09/04 00:47:40;;;;;;;7.68;3.50;;;;;;;19.09;100.00;96397.25;5135409;27;21938;-49
2022/09/04 00:50:35;;;;;;;11.23;3.70;;;;;;;19.06;100.00;96398.47;5137361;27;20079;-52
2022/09/04 00:53:23;;;;;;;6.45;3.70;;;;;;;19.06;100.00;96394.97;5111796;27;20476;-54
2022/09/04 00:56:03;;;;;;;14.10;3.57;;;;;;;19.42;100.00;96392.00;5140848;27;20077;-52
2022/09/04 00:58:42;;;;;;;11.90;2.80;;;;;;;19.24;100.00;96389.91;5139192;27;20078;-45
2022/09/04 01:01:14;;;;;;;8.65;2.88;;;;;;;19.20;100.00;96391.31;5136376;27;20082;-48
2022/09/04 01:04:07;;;;;;;4.72;2.38;;;;;;;19.17;100.00;96392.56;5133968;27;20074;-48
2022/09/04 01:06:42;;;;;;;7.30;2.67;;;;;;;18.83;100.00;96412.13;5135276;27;20444;-48
2022/09/04 01:09:31;;;;;;;4.05;2.70;;;;;;;18.95;100.00;96405.19;5134232;27;20089;-49
2022/09/04 01:12:07;;;;;;;9.00;2.80;;;;;;;18.79;100.00;96410.91;5136507;27;20081;-50
2022/09/04 01:14:40;;;;;;;4.05;2.53;;;;;;;18.86;100.00;96414.41;5135572;27;20075;-52
2022/09/04 01:17:15;;;;;;;4.10;2.67;;;;;;;18.71;100.00;96409.19;5134499;27;20086;-53
2022/09/04 01:19:52;;;;;;;4.45;2.70;;;;;;;18.93;100.00;96417.94;5134152;27;20094;-52
2022/09/04 01:22:41;;;;;;;4.65;2.95;;;;;;;18.77;100.00;96423.59;5135564;27;20086;-50
2022/09/04 01:25:26;;;;;;;3.35;2.90;;;;;;;18.71;100.00;96419.00;5137341;27;20808;-56
2022/09/04 01:27:59;;;;;;;3.80;3.10;;;;;;;18.79;100.00;96416.22;5143543;27;20444;-51
2022/09/04 01:30:31;;;;;;;4.13;3.00;;;;;;;18.89;100.00;96423.88;5142706;27;20096;-49
2022/09/04 01:33:05;;;;;;;5.65;3.05;;;;;;;18.53;100.00;96422.19;5142003;27;20070;-56
2022/09/04 01:35:39;;;;;;;4.30;2.97;;;;;;;18.84;100.00;96419.13;5138464;27;20467;-54
2022/09/04 01:38:13;;;;;;;5.20;3.22;;;;;;;18.47;100.00;96429.13;5135059;27;20070;-47
2022/09/04 01:40:45;;;;;;;4.45;2.95;;;;;;;18.67;100.00;96423.94;5140247;27;20081;-46
2022/09/04 01:43:17;;;;;;;13.35;2.97;;;;;;;18.45;100.00;96428.53;5142208;27;20457;-51
2022/09/04 01:46:13;;;;;;;7.07;3.22;;;;;;;18.61;100.00;96429.22;5139720;27;20074;-48
2022/09/04 01:48:46;;;;;;;6.53;3.30;;;;;;;18.25;100.00;96425.69;5141501;27;20086;-53
2022/09/04 01:51:20;;;;;;;6.63;2.90;;;;;;;18.72;100.00;96423.38;5141995;27;20100;-52
2022/09/04 01:53:59;;;;;;;7.97;2.67;;;;;;;19.07;100.00;96426.84;5143531;27;20484;-52
2022/09/04 01:56:34;;;;;;;16.67;3.08;;;;;;;18.96;100.00;96422.91;5140082;27;20437;-45
2022/09/04 01:59:10;;;;;;;18.85;3.33;;;;;;;18.86;100.00;96425.09;5142694;27;20082;-56
2022/09/04 02:01:45;;;;;;;14.88;3.08;;;;;;;18.74;100.00;96432.84;5136629;27;20070;-50
2022/09/04 02:04:20;;;;;;;15.32;3.10;;;;;;;18.87;100.00;96424.06;5139895;27;20083;-55
2022/09/04 02:06:55;;;;;;;4.82;2.40;;;;;;;19.00;100.00;96425.19;5138962;27;20062;-50
2022/09/04 02:09:31;;;;;;;5.47;2.80;;;;;;;18.72;100.00;96434.06;5136857;27;20081;-51
2022/09/04 02:12:07;;;;;;;4.40;2.80;;;;;;;19.14;100.00;96430.38;5139530;27;20074;-54
2022/09/04 02:14:43;;;;;;;13.40;2.80;;;;;;;19.36;100.00;96431.06;5138335;27;20046;-49
2022/09/04 02:17:17;;;;;;;6.13;2.95;;;;;;;19.47;100.00;96429.66;5140527;27;20075;-50
2022/09/04 02:20:02;;;;;;;6.53;2.65;;;;;;;19.42;100.00;96429.47;5138833;27;20078;-47
2022/09/04 02:22:38;;;;;;;8.07;2.92;;;;;;;19.38;100.00;96437.06;5139607;27;20081;-52
2022/09/04 02:25:16;;;;;;;5.32;3.00;;;;;;;19.27;100.00;96434.13;5139864;27;20097;-46
2022/09/04 02:27:50;;;;;;;9.98;2.63;;;;;;;18.91;100.00;96438.69;5140966;27;20743;-53
2022/09/04 02:30:20;;;;;;;7.18;2.60;;;;;;;18.82;100.00;96439.03;5137432;27;20090;-49
2022/09/04 02:32:55;;;;;;;9.13;3.05;;;;;;;18.97;100.00;96439.75;5139102;27;20515;-50
2022/09/04 02:35:28;;;;;;;15.55;3.53;;;;;;;18.85;100.00;96442.13;5134825;27;20619;-49
2022/09/04 02:38:04;;;;;;;5.15;3.08;;;;;;;18.67;100.00;96439.13;5134559;27;20058;-51
2022/09/04 02:40:39;;;;;;;6.07;3.00;;;;;;;18.58;100.00;96435.81;5137612;27;20087;-52
2022/09/04 02:43:24;;;;;;;7.45;3.33;;;;;;;18.62;100.00;96441.59;5139036;27;20066;-54
2022/09/04 02:45:59;;;;;;;4.60;3.10;;;;;;;18.66;100.00;96440.97;5140343;27;20086;-54
2022/09/04 02:48:33;;;;;;;9.68;3.08;;;;;;;18.87;100.00;96439.28;5137539;27;20078;-48
2022/09/04 02:51:13;;;;;;;17.63;3.03;;;;;;;18.96;100.00;96436.25;5133386;27;20082;-50
2022/09/04 02:53:49;;;;;;;5.43;2.95;;;;;;;18.76;100.00;96429.16;5138631;27;20035;-50
2022/09/04 02:56:26;;;;;;;6.60;3.00;;;;;;;18.98;100.00;96439.53;5137352;27;20528;-47
2022/09/04 02:59:07;;;;;;;5.30;3.05;;;;;;;18.83;100.00;96433.50;5138487;27;20074;-49
2022/09/04 03:01:44;;;;;;;6.18;3.00;;;;;;;18.65;100.00;96431.31;5136704;27;20483;-47
2022/09/04 03:04:20;;;;;;;6.35;3.40;;;;;;;19.18;100.00;96428.13;5136688;27;20090;-53
2022/09/04 03:06:51;;;;;;;4.03;3.10;;;;;;;18.77;100.00;96422.78;5136407;27;20074;-52
2022/09/04 03:09:24;;;;;;;3.70;2.70;;;;;;;19.09;100.00;96426.66;5134090;27;20100;-51
2022/09/04 03:11:57;;;;;;;7.75;3.22;;;;;;;18.58;100.00;96426.94;5141051;27;20067;-46
2022/09/04 03:14:33;;;;;;;5.28;2.72;;;;;;;19.01;100.00;96424.16;5140077;27;20074;-47
2022/09/04 03:17:09;;;;;;;7.40;3.03;;;;;;;19.25;100.00;96426.31;5140611;27;20535;-48
2022/09/04 03:19:46;;;;;;;9.23;3.00;;;;;;;18.82;100.00;96433.69;5138721;27;20081;-49
2022/09/04 03:22:19;;;;;;;9.23;3.30;;;;;;;19.00;100.00;96426.00;5135284;27;20098;-52
2022/09/04 03:25:03;;;;;;;6.80;2.80;;;;;;;18.77;100.00;96439.63;5137060;27;20127;-51
2022/09/04 03:27:32;;;;;;;13.45;2.45;;;;;;;18.93;100.00;96439.31;5136277;27;20221;-47
2022/09/04 03:30:04;;;;;;;4.72;2.60;;;;;;;18.49;100.00;96444.97;5135048;27;20211;-48
2022/09/04 03:32:40;;;;;;;6.13;2.50;;;;;;;19.29;100.00;96437.44;5136892;27;20085;-49
2022/09/04 03:35:13;;;;;;;9.13;2.70;;;;;;;19.42;100.00;96440.16;5137211;27;20626;-49
2022/09/04 03:37:57;;;;;;;6.15;2.40;;;;;;;18.91;100.00;96432.53;5138010;27;20457;-51
2022/09/04 03:40:34;;;;;;;4.10;2.30;;;;;;;18.60;100.00;96441.75;5138468;27;20077;-50
2022/09/04 03:43:23;;;;;;;3.88;2.28;;;;;;;18.73;100.00;96441.06;5134216;27;20533;-48
2022/09/04 03:45:57;;;;;;;5.85;2.35;;;;;;;18.82;100.00;96439.84;5136697;27;20070;-45
2022/09/04 03:48:38;;;;;;;4.78;2.38;;;;;;;18.86;100.00;96443.81;5133809;27;20070;-50
2022/09/04 03:51:14;;;;;;;6.22;2.17;;;;;;;19.42;100.00;96445.50;5140370;27;20078;-52
2022/09/04 03:53:45;;;;;;;8.00;2.30;;;;;;;19.60;100.00;96451.09;5138410;27;20074;-50
2022/09/04 03:56:36;;;;;;;5.47;2.42;;;;;;;19.14;100.00;96457.13;5144086;27;20089;-55
2022/09/04 03:59:06;;;;;;;7.95;2.50;;;;;;;18.70;100.00;96454.78;5135406;27;20078;-49
2022/09/04 04:01:44;;;;;;;7.50;2.43;;;;;;;18.44;100.00;96461.59;5134682;27;20053;-48
2022/09/04 04:04:45;;;;;;;5.10;2.55;;;;;;;18.56;100.00;96464.53;5135068;27;20066;-49
2022/09/04 04:07:24;;;;;;;4.68;2.30;;;;;;;19.29;100.00;96470.34;5137544;27;20087;-53
2022/09/04 04:10:01;;;;;;;11.23;2.60;;;;;;;19.40;100.00;96461.72;5135883;27;20070;-51
2022/09/04 04:12:44;;;;;;;8.10;3.05;;;;;;;19.39;100.00;96462.78;5138600;27;20078;-49
2022/09/04 04:15:28;;;;;;;5.32;2.75;;;;;;;19.83;100.00;96458.00;5136332;27;20102;-49
2022/09/04 04:18:13;;;;;;;4.63;2.65;;;;;;;19.59;100.00;96465.50;5139049;27;20085;-48
2022/09/04 04:20:44;;;;;;;4.07;2.40;;;;;;;19.46;100.00;96478.84;5136206;27;20525;-52
2022/09/04 04:23:36;;;;;;;3.40;2.47;;;;;;;19.67;100.00;96484.09;5136957;27;20520;-54
2022/09/04 04:26:08;;;;;;;8.20;2.30;;;;;;;19.98;100.00;96487.25;5139408;27;20105;-50
2022/09/04 04:28:58;;;;;;;10.63;2.50;;;;;;;20.22;100.00;96484.00;5136868;27;20504;-53
2022/09/04 04:31:37;;;;;;;8.88;2.45;;;;;;;20.30;100.00;96489.16;5137963;27;20086;-53
2022/09/04 04:34:10;;;;;;;9.75;2.38;;;;;;;20.13;100.00;96493.25;5133520;27;20074;-49
2022/09/04 04:36:44;;;;;;;7.70;2.40;;;;;;;20.27;100.00;96489.56;5136955;27;20086;-53
2022/09/04 04:39:19;;;;;;;7.13;2.85;;;;;;;20.21;100.00;96486.88;5132046;27;20085;-48
2022/09/04 04:42:09;;;;;;;9.70;2.20;;;;;;;20.15;100.00;96497.38;5132914;27;20079;-52
2022/09/04 04:47:52;;;;;;;7.13;2.35;;;;;;;20.25;100.00;96498.84;5133025;27;20082;-52
2022/09/04 04:50:22;;;;;;;9.93;2.40;;;;;;;20.30;100.00;96499.03;5132942;27;20067;-50
2022/09/04 04:52:56;;;;;;;4.13;2.33;;;;;;;19.98;100.00;96504.13;5134792;27;20082;-52
2022/09/04 04:55:37;;;;;;;7.75;2.20;;;;;;;20.10;100.00;96513.25;5134400;27;20536;-50
2022/09/04 04:58:18;;;;;;;;;;;;;;;20.07;100.00;96518.19;5139700;27;20089;-49
2022/09/04 05:00:49;;;;;;;7.07;2.30;;;;;;;19.47;100.00;96525.13;5139544;27;19953;-45
2022/09/04 05:03:26;;;;;;;3.00;2.13;;;;;;;19.98;100.00;96522.88;5134684;27;20517;-54
2022/09/04 05:05:59;;;;;;;4.00;2.30;;;;;;;19.72;100.00;96528.13;5139342;27;20078;-45
2022/09/04 05:08:40;;;;;;;2.65;2.05;;;;;;;19.97;100.00;96534.63;5135598;27;20074;-50
2022/09/04 05:11:20;;;;;;;6.38;2.20;;;;;;;20.23;100.00;96538.38;5136477;27;20046;-51
2022/09/04 05:13:57;;;;;;;5.65;2.05;;;;;;;20.70;100.00;96540.09;5135584;27;20168;-56
2022/09/04 05:16:32;;;;;;;5.40;2.25;;;;;;;20.73;100.00;96549.59;5134979;27;20081;-56
2022/09/04 05:19:07;;;;;;;4.93;2.20;;;;;;;20.44;100.00;96554.28;5131981;27;20086;-48
2022/09/04 05:21:39;;;;;;;4.20;2.15;;;;;;;20.42;100.00;96550.16;5136164;27;20543;-52
2022/09/04 05:24:13;;;;;;;5.43;2.47;;;;;;;20.70;100.00;96558.03;5135052;27;20078;-53
2022/09/04 05:26:48;;;;;;;3.13;2.10;;;;;;;20.80;100.00;96561.13;5136584;27;20087;-48
2022/09/04 05:29:22;;;;;;;4.05;2.28;;;;;;;20.94;100.00;96565.44;5135626;27;20078;-53
2022/09/04 05:31:54;;;;;;;4.38;2.45;;;;;;;20.80;100.00;96570.00;5138468;27;20117;-54
2022/09/04 05:34:29;;;;;;;3.42;2.20;;;;;;;20.89;100.00;96565.25;5133451;27;20070;-49
2022/09/04 05:37:06;;;;;;;3.97;2.13;;;;;;;20.80;100.00;96571.84;5136641;27;20547;-53
2022/09/04 05:39:44;;;;;;;3.95;2.38;;;;;;;21.01;100.00;96571.63;5133830;27;20101;-52
2022/09/04 05:42:34;;;;;;;5.75;2.17;;;;;;;20.95;100.00;96567.09;5133159;27;20049;-57
2022/09/04 05:45:08;;;;;;;3.55;2.20;;;;;;;21.36;100.00;96571.41;5133537;27;20066;-50
2022/09/04 05:47:43;;;;;;;6.28;2.35;;;;;;;20.70;100.00;96571.44;5136026;27;20082;-56
2022/09/04 05:50:25;;;;;;;2.75;1.95;;;;;;;21.67;100.00;96573.38;5130626;27;20074;-53
2022/09/04 05:53:10;;;;;;;4.25;1.83;;;;;;;21.88;100.00;96580.31;5134688;27;20093;-52
2022/09/04 05:56:26;;;;;;;8.05;2.33;;;;;;;21.33;100.00;96580.69;5137452;27;20086;-52
2022/09/04 05:59:09;;;;;;;4.30;2.13;;;;;;;21.22;100.00;96586.66;5070028;28;20517;-52
2022/09/04 06:01:54;;;;;;;4.82;1.95;;;;;;;21.75;100.00;96583.91;5133918;27;20074;-53
2022/09/04 06:04:45;;;;;;;2.90;2.00;;;;;;;21.37;100.00;96582.97;5134726;27;20457;-54
2022/09/04 06:07:21;;;;;;;5.28;2.10;;;;;;;22.05;100.00;96578.78;5131436;27;20140;-53
2022/09/04 06:10:02;;;;;;;6.68;2.17;;;;;;;22.23;100.00;96582.69;5135082;27;20446;-47
2022/09/04 06:13:15;;;;;;;4.68;2.30;;;;;;;22.03;100.00;96586.25;5139767;27;20066;-50
2022/09/04 06:15:54;;;;;;;5.70;1.60;;;;;;;22.26;100.00;96590.31;5144055;27;20075;-49
2022/09/04 06:18:42;;;;;;;3.33;1.85;;;;;;;22.57;100.00;96592.16;5136825;27;20039;-50
2022/09/04 06:21:26;;;;;;;4.10;1.88;;;;;;;22.95;100.00;96596.69;5136986;27;20488;-51
2022/09/04 06:24:04;;;;;;;3.78;1.83;;;;;;;23.05;100.00;96593.50;5140124;27;20104;-56
2022/09/04 06:26:45;;;;;;;3.95;2.00;;;;;;;23.12;100.00;96599.66;5144976;27;20071;-53
2022/09/04 06:29:51;;;;;;;3.33;2.17;;;;;;;22.97;100.00;96595.44;5137436;27;20453;-55
2022/09/04 06:32:39;;;;;;;4.05;1.95;;;;;;;23.37;100.00;96597.78;5137209;27;20083;-47
2022/09/04 06:35:17;;;;;;;3.63;1.80;;;;;;;22.85;100.00;96602.56;5134627;27;20055;-49
2022/09/04 06:37:54;;;;;;;5.80;1.98;;;;;;;23.33;100.00;96614.56;5139816;27;20081;-53
2022/09/04 06:40:37;;;;;;;2.83;1.90;;;;;;;23.30;100.00;96617.72;5139564;27;20078;-46
2022/09/04 06:43:14;;;;;;;3.05;1.75;;;;;;;23.22;100.00;96619.63;5137893;27;20539;-56
2022/09/04 06:45:49;;;;;;;3.03;1.83;;;;;;;22.36;100.00;96630.97;5144781;27;20501;-51
2022/09/04 06:48:26;;;;;;;1.95;1.75;;;;;;;22.48;100.00;96623.06;5135213;27;20075;-49
2022/09/04 06:51:07;;;;;;;3.67;2.00;;;;;;;21.77;100.00;96632.00;5137756;27;20073;-55
2022/09/04 06:53:41;;;;;;;4.22;1.80;;;;;;;22.47;100.00;96622.25;5134944;27;20071;-49
2022/09/04 06:56:23;;;;;;;3.78;2.30;;;;;;;22.81;100.00;96624.69;5137547;27;20075;-49
2022/09/04 06:59:21;;;;;;;3.25;2.17;;;;;;;22.98;100.00;96631.22;5140274;27;20055;-47
2022/09/04 07:01:59;;;;;;;3.58;2.20;;;;;;;22.78;100.00;96628.66;5140186;27;20511;-47
2022/09/04 07:04:40;;;;;;;3.88;2.28;;;;;;;23.45;100.00;96635.16;5139458;27;20466;-50
2022/09/04 07:07:17;;;;;;;2.67;2.13;;;;;;;24.22;100.00;96640.16;5142240;27;20065;-51
2022/09/04 07:09:48;;;;;;;3.55;2.15;;;;;;;23.58;100.00;96639.59;5135797;27;20083;-46
2022/09/04 07:12:20;;;;;;;;;;;;;;;23.97;100.00;96640.25;5142961;27;20070;-46
2022/09/04 07:15:21;;;;;;;3.15;2.17;;;;;;;23.28;100.00;96642.16;5140889;27;20384;-48
2022/09/04 07:17:53;;;;;;;;;;;;;;;23.70;100.00;96647.78;5120825;27;20086;-52
2022/09/04 07:20:33;;;;;;;3.28;2.30;;;;;;;23.26;100.00;96654.16;5144273;27;19986;-49
2022/09/04 07:23:22;;;;;;;4.40;2.45;;;;;;;24.10;100.00;96647.38;5144335;27;20106;-51
2022/09/04 07:26:01;;;;;;;2.63;2.15;;;;;;;24.43;100.00;96644.25;5137320;27;20070;-53
2022/09/04 07:29:08;;;;;;;3.25;2.20;;;;;;;24.58;100.00;96647.38;5138643;27;20101;-50
2022/09/04 07:31:40;;;;;;;3.60;2.17;;;;;;;24.81;100.00;96648.50;5140435;27;20135;-46
2022/09/04 07:34:15;;;;;;;2.70;2.25;;;;;;;24.10;100.00;96655.44;5139955;27;20089;-49
2022/09/04 07:36:53;;;;;;;2.03;1.83;;;;;;;25.11;100.00;96653.91;5136536;27;20079;-53
2022/09/04 07:39:28;;;;;;;3.60;2.30;;;;;;;24.51;100.00;96662.84;5142240;27;20090;-52
2022/09/04 07:42:00;;;;;;;3.53;2.00;;;;;;;24.55;100.00;96665.91;5145099;27;20493;-51
2022/09/04 07:44:35;;;;;;;4.22;2.38;;;;;;;24.72;100.00;96664.22;5139512;27;20075;-56
2022/09/04 07:47:11;;;;;;;2.45;2.15;;;;;;;25.56;100.00;96669.56;5135621;27;20070;-52
2022/09/04 07:49:49;;;;;;;4.22;2.45;;;;;;;25.30;100.00;96660.84;5136330;27;20085;-56
2022/09/04 07:52:30;;;;;;;3.88;2.53;;;;;;;25.13;100.00;96668.00;5137709;27;20074;-49
2022/09/04 07:55:21;;;;;;;2.88;2.35;;;;;;;24.81;100.00;96670.94;5135211;27;20083;-51
2022/09/04 07:58:19;;;;;;;3.20;2.47;;;;;;;24.82;100.00;96671.75;5139589;27;20074;-48
2022/09/04 08:00:56;;;;;;;3.75;2.40;;;;;;;25.08;100.00;96681.31;5137857;27;20070;-52
2022/09/04 08:03:50;;;;;;;4.35;2.25;;;;;;;25.68;100.00;96670.38;5135984;27;20074;-53
2022/09/04 08:06:26;;;;;;;3.95;2.25;;;;;;;25.56;100.00;96683.88;5141380;27;20409;-49
2022/09/04 08:09:24;;;;;;;3.60;2.50;;;;;;;25.70;100.00;96687.16;5135878;27;20454;-54
2022/09/04 08:12:17;;;;;;;5.15;2.40;;;;;;;25.60;100.00;96689.63;5138469;27;20088;-52
2022/09/04 08:14:53;;;;;;;3.97;2.47;;;;;;;25.73;100.00;96691.28;5137809;27;20074;-52
2022/09/04 08:18:00;;;;;;;2.95;2.25;;;;;;;26.55;100.00;96688.50;5132848;27;20074;-50
2022/09/04 08:20:44;;;;;;;5.22;2.50;;;;;;;26.09;100.00;96687.53;5139911;27;20078;-51
2022/09/04 08:23:57;;;;;;;2.75;2.20;;;;;;;26.12;100.00;96686.22;5139932;27;20081;-47
2022/09/04 08:26:33;;;;;;;3.13;2.70;;;;;;;26.39;100.00;96691.94;5113595;27;20069;-46
2022/09/04 08:29:21;;;;;;;4.70;2.55;;;;;;;26.00;100.00;96697.06;5137105;27;20472;-51
2022/09/04 08:32:01;;;;;;;2.55;2.30;;;;;;;26.48;100.00;96709.47;5133277;27;20097;-54
2022/09/04 08:34:51;;;;;;;3.75;2.40;;;;;;;26.85;100.00;96701.00;5141106;27;20753;-51
2022/09/04 08:37:25;;;;;;;3.90;2.60;;;;;;;27.17;100.00;96701.31;5134753;27;20603;-54
2022/09/04 08:40:03;;;;;;;2.75;2.30;;;;;;;26.77;100.00;96702.19;5134024;27;20090;-54
2022/09/04 08:43:02;;;;;;;4.47;2.45;;;;;;;26.17;100.00;96706.09;5135227;27;20072;-52
2022/09/04 08:46:00;;;;;;;3.63;2.38;;;;;;;26.82;100.00;96710.41;5137284;27;20081;-49
2022/09/04 08:49:01;;;;;;;3.53;2.55;;;;;;;26.56;100.00;96705.56;5135447;27;20047;-54
2022/09/04 08:52:09;;;;;;;3.97;2.67;;;;;;;27.31;100.00;96701.81;5140424;27;20093;-52
2022/09/04 08:55:17;;;;;;;4.13;3.08;;;;;;;27.61;100.00;96702.34;5132084;27;20086;-47
2022/09/04 08:58:13;;;;;;;5.30;2.85;;;;;;;26.82;100.00;96706.88;5104489;27;20043;-49
2022/09/04 09:00:54;;;;;;;4.18;2.80;;;;;;;27.28;100.00;96703.13;5137606;27;20081;-53
2022/09/04 09:03:51;;;;;;;4.13;2.53;;;;;;;27.19;100.00;96713.56;5136783;27;20687;-54
2022/09/04 09:06:52;;;;;;;3.67;2.75;;;;;;;27.02;100.00;96709.16;5131971;27;20051;-56
2022/09/04 09:09:50;;;;;;;2.85;2.55;;;;;;;28.24;100.00;96713.03;5135099;27;20078;-58
2022/09/04 09:13:09;;;;;;;4.63;2.50;;;;;;;27.56;100.00;96709.53;5131291;27;20523;-54
2022/09/04 09:15:49;;;;;;;3.28;2.58;;;;;;;27.95;100.00;96712.34;5057044;28;20080;-57
2022/09/04 09:18:34;;;;;;;3.00;2.43;;;;;;;27.99;100.00;96702.66;5120693;27;20598;-54
2022/09/04 09:21:09;;;;;;;2.70;2.50;;;;;;;28.22;100.00;96697.00;5135896;27;20503;-55
2022/09/04 09:23:55;;;;;;;3.90;2.35;;;;;;;27.69;100.00;96701.91;5132043;27;20093;-48
2022/09/04 09:26:27;;;;;;;4.05;2.80;;;;;;;27.92;100.00;96702.81;5133011;27;20086;-51
2022/09/04 09:29:38;;;;;;;4.78;2.72;;;;;;;28.68;100.00;96705.75;5132317;27;20067;-51
2022/09/04 09:32:29;;;;;;;3.03;2.45;;;;;;;28.65;100.00;96710.84;5131216;27;20527;-51
2022/09/04 09:35:35;;;;;;;6.25;2.55;;;;;;;28.30;100.00;96703.88;5131242;27;20623;-53
2022/09/04 09:38:23;;;;;;;2.60;2.10;;;;;;;28.31;100.00;96698.19;5133247;27;20085;-49
2022/09/04 09:41:11;;;;;;;3.40;2.50;;;;;;;28.90;100.00;96697.56;5132175;27;20569;-55
2022/09/04 09:43:58;;;;;;;6.70;2.50;;;;;;;29.32;96.63;96695.03;5131240;27;20101;-56
2022/09/04 09:47:03;;;;;;;2.83;2.38;;;;;;;29.20;97.98;96691.63;5137215;27;20085;-54
2022/09/04 09:50:19;;;;;;;3.58;2.30;;;;;;;28.51;100.00;96694.13;5137432;27;20118;-51
2022/09/04 09:53:24;;;;;;;2.92;2.15;;;;;;;28.05;100.00;96691.63;5136388;27;20588;-51
2022/09/04 09:56:08;;;;;;;2.70;2.20;;;;;;;28.53;100.00;96692.81;5140952;27;20072;-50
2022/09/04 09:59:00;;;;;;;2.67;2.30;;;;;;;29.28;93.07;96688.44;5137305;27;20509;-50
2022/09/04 10:01:51;;;;;;;2.97;2.30;;;;;;;29.45;90.13;96690.22;5141174;27;20105;-54
2022/09/04 10:04:33;;;;;;;3.55;2.22;;;;;;;28.93;99.03;96696.22;5141746;27;20070;-53
2022/09/04 10:07:25;;;;;;;2.50;2.17;;;;;;;29.86;88.85;96685.13;5138046;27;20075;-49
2022/09/04 10:10:18;;;;;;;3.00;2.35;;;;;;;29.64;90.29;96685.25;5140453;27;20516;-53
2022/09/04 10:13:15;;;;;;;3.20;1.92;;;;;;;29.80;87.97;96687.81;5138643;27;20477;-56
2022/09/04 10:16:28;;;;;;;3.30;2.53;;;;;;;29.91;78.08;96696.03;5140343;27;20078;-55
2022/09/04 10:19:22;;;;;;;2.17;1.95;;;;;;;30.51;76.83;96686.56;5106755;27;20070;-49
2022/09/04 10:22:13;;;;;;;2.00;1.48;;;;;;;30.11;74.21;96689.88;5138301;27;20086;-50
2022/09/04 10:25:10;;;;;;;2.13;1.60;;;;;;;30.28;62.62;96687.81;5150957;27;20078;-51
2022/09/04 10:28:10;;;;;;;2.03;1.70;;;;;;;29.79;70.13;96691.59;5106206;27;20070;-50
2022/09/04 10:30:54;;;;;;;3.58;1.88;;;;;;;30.42;66.42;96697.16;5139935;27;20074;-54
2022/09/04 10:33:30;;;;;;;2.38;1.48;;;;;;;30.59;59.17;96696.13;5135552;27;20496;-55
2022/09/04 10:36:08;;;;;;;2.58;1.92;;;;;;;30.56;65.42;96694.78;5139455;27;20070;-55
2022/09/04 10:41:44;;;;;;;3.95;1.95;;;;;;;31.86;52.73;96684.59;5136941;27;20071;-54
2022/09/04 10:44:37;;;;;;;3.13;1.40;;;;;;;31.46;53.15;96685.47;5136689;27;20077;-53
2022/09/04 10:47:14;;;;;;;3.13;1.48;;;;;;;30.94;56.34;96690.81;5137940;27;21710;-57
2022/09/04 10:49:58;;;;;;;1.73;1.33;;;;;;;31.59;48.50;96690.34;5142016;27;20079;-52
2022/09/04 10:53:14;;;;;;;2.05;1.50;;;;;;;30.72;57.90;96699.16;5141368;27;20079;-52
2022/09/04 10:56:02;;;;;;;1.63;1.25;;;;;;;31.20;58.73;96693.56;5141524;27;20819;-47
2022/09/04 10:59:09;;;;;;;1.75;1.30;;;;;;;31.94;53.83;96686.00;5137320;27;20090;-51
2022/09/04 11:02:14;;;;;;;2.95;1.60;;;;;;;32.57;48.38;96689.09;5138654;27;20074;-54
2022/09/04 11:05:21;;;;;;;1.80;1.35;;;;;;;31.62;48.25;96692.53;5138079;27;20785;-49
2022/09/04 11:08:27;;;;;;;1.65;1.45;;;;;;;31.95;48.74;96688.44;5115493;27;20092;-50
2022/09/04 11:11:08;;;;;;;2.42;1.70;;;;;;;30.64;49.71;96693.44;5096778;27;20058;-56
2022/09/04 11:14:16;;;;;;;1.48;1.20;;;;;;;31.47;48.64;96690.63;5139334;27;20077;-52
2022/09/04 11:17:08;;;;;;;1.27;1.15;;;;;;;30.09;55.00;96697.50;5138602;27;20058;-51
2022/09/04 11:20:35;;;;;;;2.30;1.50;;;;;;;30.96;54.98;96696.81;5136855;27;20082;-55
2022/09/04 11:23:36;;;;;;;1.65;1.30;;;;;;;30.92;49.16;96694.91;5136236;27;20090;-50
2022/09/04 11:26:25;;;;;;;3.75;1.50;;;;;;;31.29;45.80;96683.78;5147485;27;20074;-47
2022/09/04 11:29:22;;;;;;;2.78;1.27;;;;;;;31.70;46.28;96681.09;5138409;27;20093;-54
2022/09/04 11:32:11;;;;;;;2.53;1.40;;;;;;;31.67;46.98;96678.91;5138479;27;20078;-51
2022/09/04 11:35:12;;;;;;;1.73;1.10;;;;;;;31.82;45.04;96664.41;5140428;27;20713;-51
2022/09/04 11:37:59;;;;;;;1.17;0.98;;;;;;;31.91;41.91;96669.06;5141227;27;20102;-55
2022/09/04 11:41:01;;;;;;;2.38;1.30;;;;;;;31.87;41.90;96672.63;5139772;27;20066;-53
2022/09/04 11:43:53;;;;;;;1.88;1.40;;;;;;;31.90;43.46;96670.19;5137955;27;20097;-51
2022/09/04 11:46:51;;;;;;;1.30;1.20;;;;;;;30.99;44.82;96670.94;5139733;27;20105;-54
2022/09/04 11:49:55;;;;;;;2.58;1.30;;;;;;;31.85;43.57;96675.59;5120337;27;20087;-49
2022/09/04 11:52:27;;;;;;;1.77;1.30;;;;;;;30.83;47.66;96683.69;5135629;27;20770;-51
2022/09/04 11:55:24;;;;;;;1.80;1.38;;;;;;;31.38;43.14;96679.47;5139541;27;20062;-56
2022/09/04 11:58:03;;;;;;;1.65;1.10;;;;;;;31.71;40.70;96674.53;5140788;27;20085;-50
2022/09/04 12:00:36;;;;;;;1.50;1.25;;;;;;;31.46;43.73;96677.28;5137053;27;20082;-48
2022/09/04 12:03:28;;;;;;;1.30;1.20;;;;;;;30.81;44.25;96685.06;5140081;27;20074;-57
2022/09/04 12:06:21;;;;;;;2.70;1.35;;;;;;;30.93;45.44;96680.19;5137476;27;20081;-49
2022/09/04 12:09:11;;;;;;;1.80;1.35;;;;;;;32.59;42.20;96678.72;5135907;27;20455;-57
2022/09/04 12:12:16;;;;;;;1.30;1.20;;;;;;;33.47;38.44;96672.41;5137470;27;20078;-56
2022/09/04 12:15:13;;;;;;;2.10;1.10;;;;;;;32.68;38.76;96678.94;5131836;27;20085;-53
2022/09/04 12:18:07;;;;;;;1.63;1.15;;;;;;;32.37;40.08;96681.75;5109315;27;20082;-57
2022/09/04 12:20:48;;;;;;;2.25;1.27;;;;;;;32.19;41.77;96669.53;5135339;27;20532;-52
2022/09/04 12:23:53;;;;;;;3.40;1.15;;;;;;;31.25;43.24;96679.97;5133829;27;20077;-49
2022/09/04 12:26:40;;;;;;;2.67;1.30;;;;;;;31.51;42.76;96675.34;5133543;27;20071;-50
2022/09/04 12:29:58;;;;;;;1.65;1.30;;;;;;;32.51;41.40;96663.72;5137272;27;20071;-55
2022/09/04 12:32:47;;;;;;;2.38;1.30;;;;;;;32.37;41.42;96665.38;5103650;27;20078;-53
2022/09/04 12:36:06;;;;;;;1.23;1.13;;;;;;;32.10;39.70;96665.75;5131859;27;20089;-52
2022/09/04 12:39:02;;;;;;;2.75;1.10;;;;;;;31.08;42.27;96682.13;5136349;27;20074;-50
2022/09/04 12:41:34;;;;;;;1.50;1.10;;;;;;;31.18;41.99;96671.25;5134275;27;20138;-54
2022/09/04 12:44:11;;;;;;;1.73;1.10;;;;;;;31.31;39.84;96678.84;5130563;27;20479;-52
2022/09/04 12:46:49;;;;;;;1.35;1.20;;;;;;;31.60;39.67;96681.91;5136509;27;20065;-57
2022/09/04 12:49:36;;;;;;;1.60;1.48;;;;;;;31.74;38.78;96676.72;5133242;27;20078;-52